This is the latest recevied weather packets stored in our database for station/object KI4NG. If no packets are shown the sender has not sent any weather packets the latest 10 day(s).
| Time | Temp. | Humidity | Pressure | Rain* | Wind** | Luminosity | Snow |
|---|---|---|---|---|---|---|---|
| 1788281826 | 30.56° C | 69% | 1023.1 hPa | 0 mm | - | 847 W/m² | - |
| 1788281521 | 30° C | 68% | 1023.1 hPa | 0 mm | - | 216 W/m² | - |
| 1788281217 | 30° C | 69% | 1023.2 hPa | 0 mm | - | 363 W/m² | - |
| 1788280912 | 30° C | 70% | 1023.3 hPa | 0 mm | - | 205 W/m² | - |
| 1788280607 | 30° C | 69% | 1023.2 hPa | 0 mm | - | 159 W/m² | - |
| 1788280306 | 31.11° C | 67% | 1023.3 hPa | 0 mm | - | 187 W/m² | - |
| 1788280002 | 30.56° C | 66% | 1023.2 hPa | 0 mm | - | 491 W/m² | - |
| 1788279701 | 31.11° C | 67% | 1023.2 hPa | 0 mm | - | 207 W/m² | - |
| 1788279400 | 31.67° C | 64% | 1023.3 hPa | 0 mm | - | 789 W/m² | - |
| 1788279099 | 31.67° C | 64% | 1023.4 hPa | 0 mm | - | 764 W/m² | - |
| 1788278796 | 31.67° C | 67% | 1023.4 hPa | 0 mm | - | 805 W/m² | - |
| 1788278491 | 31.67° C | 64% | 1023.5 hPa | 0 mm | - | 752 W/m² | - |
| 1788278190 | 30.56° C | 67% | 1023.6 hPa | 0 mm | - | 748 W/m² | - |
| 1788277905 | 31.11° C | 64% | 1023.4 hPa | 0 mm | - | 757 W/m² | - |
| 1788277580 | 31.11° C | 66% | 1023.4 hPa | 0 mm | - | 730 W/m² | - |
| 1788277275 | 31.11° C | 65% | 1023.5 hPa | 0 mm | - | 660 W/m² | - |
| 1788276970 | 31.11° C | 64% | 1023.6 hPa | 0 mm | - | 700 W/m² | - |
| 1788276663 | 30.56° C | 65% | 1023.4 hPa | 0 mm | - | 692 W/m² | - |
| 1788276359 | 31.11° C | 65% | 1023.3 hPa | 0 mm | - | 697 W/m² | - |
| 1788276057 | 30° C | 67% | 1023.6 hPa | 0 mm | - | 685 W/m² | - |
| 1788275754 | 30° C | 69% | 1023.7 hPa | 0 mm | - | 672 W/m² | - |
| 1788275453 | 30° C | 70% | 1023.5 hPa | 0 mm | - | 645 W/m² | - |
| 1788275151 | 30° C | 67% | 1023.4 hPa | 0 mm | - | 634 W/m² | - |
| 1788274849 | 29.44° C | 71% | 1023.7 hPa | 0 mm | - | 645 W/m² | - |
| 1788274548 | 28.89° C | 72% | 1023.4 hPa | 0 mm | - | 628 W/m² | - |
* Rain latest hour (hover to see other rain measurements)
** Current wind speed in m/s (hover to see current wind gust speed)